createdAt,value
2018-05-29T00:00:34.661Z,23.10
2018-05-29T00:03:02.860Z,21.70
2018-05-29T00:05:30.272Z,21.80
2018-05-29T00:07:57.695Z,21.83
2018-05-29T00:10:25.108Z,20.90
2018-05-29T00:12:52.528Z,21.13
2018-05-29T00:15:19.961Z,20.00
2018-05-29T00:17:47.472Z,20.93
2018-05-29T00:20:14.882Z,21.23
2018-05-29T00:22:42.296Z,20.93
2018-05-29T00:25:09.773Z,19.80
2018-05-29T00:27:37.192Z,20.20
2018-05-29T00:30:04.718Z,20.20
2018-05-29T00:32:32.190Z,19.67
2018-05-29T00:34:59.600Z,18.93
2018-05-29T00:37:27.025Z,20.20
2018-05-29T00:39:54.436Z,19.50
2018-05-29T00:42:21.957Z,20.30
2018-05-29T00:44:49.447Z,20.37
2018-05-29T00:47:16.864Z,19.53
2018-05-29T00:49:45.195Z,22.47
2018-05-29T00:52:13.352Z,19.37
2018-05-29T00:54:41.532Z,19.60
2018-05-29T00:57:10.132Z,19.20
2018-05-29T00:59:39.266Z,18.77
2018-05-29T01:02:06.697Z,19.10
2018-05-29T01:04:34.113Z,20.40
2018-05-29T01:07:01.532Z,20.27
2018-05-29T01:09:28.957Z,19.83
2018-05-29T01:11:56.376Z,20.33
2018-05-29T01:14:24.565Z,19.90
2018-05-29T01:16:52.748Z,21.00
2018-05-29T01:19:20.965Z,21.23
2018-05-29T01:21:49.133Z,20.10
2018-05-29T01:24:17.457Z,20.07
2018-05-29T01:26:44.872Z,20.30
2018-05-29T01:29:12.379Z,19.83
2018-05-29T01:31:40.768Z,20.13
2018-05-29T01:34:08.224Z,20.37
2018-05-29T01:36:35.661Z,20.33
2018-05-29T01:39:03.059Z,19.63
2018-05-29T01:41:30.533Z,19.77
2018-05-29T01:43:58.012Z,20.27
2018-05-29T01:46:25.478Z,20.00
2018-05-29T01:48:52.905Z,19.70
2018-05-29T01:51:20.522Z,20.27
2018-05-29T01:53:47.940Z,20.20
2018-05-29T01:56:15.457Z,19.80
2018-05-29T01:58:42.861Z,19.90
2018-05-29T02:01:11.279Z,19.87
2018-05-29T02:03:38.691Z,20.23
2018-05-29T02:06:06.109Z,19.47
2018-05-29T02:08:33.520Z,20.10
2018-05-29T02:11:00.932Z,21.30
2018-05-29T02:13:28.351Z,20.03
2018-05-29T02:15:55.755Z,18.83
2018-05-29T02:18:23.188Z,20.70
2018-05-29T02:20:50.612Z,20.73
2018-05-29T02:23:18.028Z,19.40
2018-05-29T02:25:45.449Z,19.37
2018-05-29T02:28:12.869Z,19.87
2018-05-29T02:30:41.737Z,19.60
2018-05-29T02:33:09.916Z,19.50
2018-05-29T02:35:38.128Z,19.27
2018-05-29T02:38:05.592Z,19.93
2018-05-29T02:40:33.014Z,19.00
2018-05-29T02:43:00.424Z,18.97
2018-05-29T02:45:27.843Z,19.27
2018-05-29T02:47:55.281Z,20.10
2018-05-29T02:50:22.697Z,19.87
2018-05-29T02:52:50.235Z,19.80
2018-05-29T02:55:17.683Z,19.30
2018-05-29T02:57:45.148Z,20.10
2018-05-29T03:00:12.572Z,19.10
2018-05-29T03:02:39.977Z,20.20
2018-05-29T03:05:07.448Z,19.07
2018-05-29T03:07:34.870Z,19.60
2018-05-29T03:10:02.297Z,19.37
2018-05-29T03:12:29.756Z,20.07
2018-05-29T03:14:57.175Z,19.90
2018-05-29T03:17:24.597Z,19.30
2018-05-29T03:19:52.070Z,19.37
2018-05-29T03:22:19.537Z,19.70
2018-05-29T03:24:46.956Z,20.57
2018-05-29T03:27:15.145Z,19.57
2018-05-29T03:29:42.548Z,20.20
2018-05-29T03:32:09.977Z,20.30
2018-05-29T03:34:37.500Z,20.40
2018-05-29T03:37:04.913Z,20.10
2018-05-29T03:39:32.335Z,20.50
2018-05-29T03:41:59.750Z,19.93
2018-05-29T03:44:27.260Z,20.63
2018-05-29T03:46:54.736Z,21.10
2018-05-29T03:49:22.156Z,20.43
2018-05-29T03:51:49.782Z,20.63
2018-05-29T03:54:17.944Z,21.13
2018-05-29T03:56:46.129Z,19.63
2018-05-29T03:59:14.442Z,20.13
2018-05-29T04:01:43.322Z,20.52
2018-05-29T04:04:12.452Z,20.73
2018-05-29T04:06:39.912Z,20.57
2018-05-29T04:09:07.333Z,21.10
2018-05-29T04:11:35.616Z,20.90
2018-05-29T04:14:03.020Z,20.30
2018-05-29T04:16:31.197Z,21.40
2018-05-29T04:18:59.388Z,20.47
2018-05-29T04:21:27.564Z,19.97
2018-05-29T04:23:55.791Z,21.20
2018-05-29T04:26:23.207Z,21.87
2018-05-29T04:28:50.639Z,20.40
2018-05-29T04:31:18.090Z,20.80
2018-05-29T04:33:45.500Z,21.40
2018-05-29T04:36:13.825Z,21.70
2018-05-29T04:38:42.954Z,21.67
2018-05-29T04:41:10.364Z,21.60
2018-05-29T04:43:37.889Z,21.50
2018-05-29T04:46:05.296Z,20.47
2018-05-29T04:48:32.758Z,21.13
2018-05-29T04:51:00.171Z,20.97
2018-05-29T04:53:28.364Z,21.57
2018-05-29T04:55:56.574Z,21.40
2018-05-29T04:58:24.039Z,21.27
2018-05-29T05:00:51.517Z,21.77
2018-05-29T05:03:18.928Z,22.20
2018-05-29T05:05:46.445Z,22.97
2018-05-29T05:08:13.856Z,23.80
2018-05-29T05:10:41.381Z,21.53
2018-05-29T05:13:08.852Z,22.87
2018-05-29T05:15:36.270Z,23.70
2018-05-29T05:18:03.784Z,23.43
2018-05-29T05:20:31.197Z,24.07
2018-05-29T05:22:58.640Z,22.93
2018-05-29T05:25:26.104Z,22.90
2018-05-29T05:27:53.684Z,22.40
2018-05-29T05:30:21.099Z,22.50
2018-05-29T05:32:50.038Z,22.03
2018-05-29T05:35:17.555Z,31.63
2018-05-29T05:37:44.925Z,25.00
2018-05-29T05:40:12.440Z,24.23
2018-05-29T05:42:39.917Z,22.83
2018-05-29T05:45:07.332Z,23.50
2018-05-29T05:47:34.753Z,22.10
2018-05-29T05:50:02.164Z,21.97
2018-05-29T05:52:29.695Z,21.70
2018-05-29T05:54:57.113Z,22.00
2018-05-29T05:57:24.520Z,22.47
2018-05-29T05:59:51.937Z,22.00
2018-05-29T06:02:19.367Z,22.17
2018-05-29T06:04:46.949Z,22.40
2018-05-29T06:07:15.325Z,22.37
2018-05-29T06:09:44.416Z,22.60
2018-05-29T06:12:12.596Z,23.97
2018-05-29T06:14:40.786Z,23.03
2018-05-29T06:17:08.968Z,21.30
2018-05-29T06:19:37.279Z,22.43
2018-05-29T06:22:05.461Z,23.87
2018-05-29T06:24:32.883Z,23.00
2018-05-29T06:27:00.303Z,23.77
2018-05-29T06:29:27.724Z,22.13
2018-05-29T06:31:55.141Z,22.33
2018-05-29T06:34:22.578Z,22.03
2018-05-29T06:36:50.165Z,22.23
2018-05-29T06:39:17.594Z,21.90
2018-05-29T06:41:45.797Z,21.87
2018-05-29T06:44:13.221Z,21.70
2018-05-29T06:46:40.632Z,21.70
2018-05-29T06:49:08.960Z,22.40
2018-05-29T06:51:37.141Z,22.00
2018-05-29T06:54:04.558Z,21.43
2018-05-29T06:56:32.076Z,21.67
2018-05-29T06:58:59.551Z,22.20
2018-05-29T07:01:27.708Z,21.20
2018-05-29T07:03:55.927Z,22.67
2018-05-29T07:06:24.116Z,21.00
2018-05-29T07:08:51.583Z,21.37
2018-05-29T07:11:18.997Z,20.70
2018-05-29T07:13:46.420Z,21.83
2018-05-29T07:16:13.882Z,21.57
2018-05-29T07:18:42.051Z,19.60
2018-05-29T07:21:10.260Z,19.80
2018-05-29T07:23:37.670Z,19.27
2018-05-29T07:26:05.084Z,20.10
2018-05-29T07:28:32.496Z,20.43
2018-05-29T07:30:59.904Z,20.87
2018-05-29T07:33:28.123Z,21.53
2018-05-29T07:35:55.538Z,21.17
2018-05-29T07:38:22.952Z,20.13
2018-05-29T07:40:50.372Z,21.10
2018-05-29T07:43:17.800Z,20.87
2018-05-29T07:45:46.173Z,20.27
2018-05-29T07:48:13.587Z,19.80
2018-05-29T07:50:41.107Z,19.37
2018-05-29T07:53:08.575Z,19.60
2018-05-29T07:55:36.001Z,20.30
2018-05-29T07:58:03.537Z,18.63
2018-05-29T08:00:30.976Z,16.97
2018-05-29T08:02:58.396Z,18.23
2018-05-29T08:05:25.816Z,18.17
2018-05-29T08:07:53.232Z,17.97
2018-05-29T08:10:20.684Z,17.50
2018-05-29T08:12:48.136Z,18.50
2018-05-29T08:15:17.345Z,17.73
2018-05-29T08:17:44.817Z,17.20
2018-05-29T08:20:12.275Z,17.37
2018-05-29T08:22:39.737Z,16.43
2018-05-29T08:25:07.208Z,18.20
2018-05-29T08:27:34.672Z,17.53
2018-05-29T08:30:02.093Z,19.00
2018-05-29T08:32:29.623Z,16.70
2018-05-29T08:34:57.809Z,17.50
2018-05-29T08:37:25.220Z,17.70
2018-05-29T08:39:52.644Z,17.40
2018-05-29T08:42:20.113Z,17.07
2018-05-29T08:44:47.585Z,17.60
2018-05-29T08:47:14.993Z,17.33
2018-05-29T08:49:42.421Z,15.73
2018-05-29T08:52:09.830Z,16.63
2018-05-29T08:54:37.349Z,16.83
2018-05-29T08:57:04.825Z,15.80
2018-05-29T08:59:32.252Z,15.40
2018-05-29T09:01:59.660Z,16.30
2018-05-29T09:04:27.079Z,17.47
2018-05-29T09:06:54.485Z,16.50
2018-05-29T09:09:21.915Z,16.13
2018-05-29T09:11:49.414Z,15.10
2018-05-29T09:14:17.829Z,15.60
2018-05-29T09:16:45.226Z,17.03
2018-05-29T09:19:12.650Z,16.10
2018-05-29T09:21:40.824Z,15.37
2018-05-29T09:24:09.135Z,16.70
2018-05-29T09:26:37.317Z,15.87
2018-05-29T09:29:04.761Z,16.57
2018-05-29T09:31:32.945Z,15.10
2018-05-29T09:34:01.158Z,15.00
2018-05-29T09:36:28.734Z,15.43
2018-05-29T09:38:56.906Z,15.70
2018-05-29T09:41:25.142Z,14.20
2018-05-29T09:43:53.280Z,15.20
2018-05-29T09:46:20.768Z,14.73
2018-05-29T09:48:48.271Z,15.20
2018-05-29T09:51:15.796Z,14.80
2018-05-29T09:53:43.268Z,14.03
2018-05-29T09:56:10.692Z,14.53
2018-05-29T09:58:38.108Z,14.67
2018-05-29T10:01:05.611Z,14.57
2018-05-29T10:03:32.999Z,14.10
2018-05-29T10:06:00.501Z,14.03
2018-05-29T10:08:27.937Z,13.70
2018-05-29T10:10:55.351Z,13.97
2018-05-29T10:13:22.787Z,15.27
2018-05-29T10:15:50.292Z,15.30
2018-05-29T10:18:17.769Z,14.00
2018-05-29T10:20:45.185Z,13.53
2018-05-29T10:23:14.120Z,14.20
2018-05-29T10:25:41.537Z,13.87
2018-05-29T10:28:08.953Z,14.23
2018-05-29T10:30:36.372Z,14.07
2018-05-29T10:33:03.921Z,14.00
2018-05-29T10:35:31.308Z,12.20
2018-05-29T10:37:58.744Z,12.90
2018-05-29T10:40:26.205Z,12.37
2018-05-29T10:42:53.670Z,11.37
2018-05-29T10:45:21.101Z,12.40
2018-05-29T10:47:49.557Z,11.90
2018-05-29T10:50:16.969Z,10.73
2018-05-29T10:52:45.167Z,10.50
2018-05-29T10:55:13.349Z,11.80
2018-05-29T10:57:41.560Z,10.90
2018-05-29T11:00:09.721Z,12.30
2018-05-29T11:02:37.133Z,11.80
2018-05-29T11:05:04.560Z,10.73
2018-05-29T11:07:32.758Z,11.33
2018-05-29T11:10:00.175Z,12.00
2018-05-29T11:12:27.588Z,10.97
2018-05-29T11:14:55.785Z,9.30
2018-05-29T11:17:23.262Z,9.93
2018-05-29T11:19:51.426Z,8.43
2018-05-29T11:22:20.532Z,9.50
2018-05-29T11:24:48.844Z,9.10
2018-05-29T11:27:16.244Z,8.60
2018-05-29T11:29:43.659Z,8.83
2018-05-29T11:32:11.848Z,8.77
2018-05-29T11:34:40.015Z,8.60
2018-05-29T11:37:08.196Z,8.73
2018-05-29T11:39:35.633Z,9.27
2018-05-29T11:42:03.059Z,8.20
2018-05-29T11:44:30.464Z,8.80
2018-05-29T11:46:57.886Z,8.37
2018-05-29T11:49:26.061Z,8.03
2018-05-29T11:51:54.252Z,8.50
2018-05-29T11:54:22.434Z,9.00
2018-05-29T11:56:51.343Z,9.87
2018-05-29T11:59:20.445Z,8.63
2018-05-29T12:01:48.698Z,8.80
2018-05-29T12:04:16.824Z,9.03
2018-05-29T12:06:45.033Z,8.53
2018-05-29T12:09:12.440Z,7.83
2018-05-29T12:11:39.864Z,8.00
2018-05-29T12:14:07.337Z,8.43
2018-05-29T12:16:34.744Z,7.70
2018-05-29T12:19:02.153Z,7.70
2018-05-29T12:21:30.338Z,7.90
2018-05-29T12:23:58.514Z,7.67
2018-05-29T12:26:26.691Z,7.30
2018-05-29T12:28:54.200Z,7.43
2018-05-29T12:31:21.617Z,7.50
2018-05-29T12:33:49.036Z,7.70
2018-05-29T12:36:16.510Z,6.83
2018-05-29T12:38:43.929Z,7.37
2018-05-29T12:41:11.332Z,7.43
2018-05-29T12:43:38.804Z,6.97
2018-05-29T12:46:06.316Z,7.50
2018-05-29T12:48:33.747Z,7.33
2018-05-29T12:51:01.221Z,6.87
2018-05-29T12:53:28.686Z,7.10
2018-05-29T12:55:56.868Z,7.33
2018-05-29T12:58:24.280Z,7.67
2018-05-29T13:00:51.728Z,7.30
2018-05-29T13:03:19.141Z,7.40
2018-05-29T13:05:46.636Z,7.47
2018-05-29T13:08:14.109Z,7.00
2018-05-29T13:10:41.529Z,6.40
2018-05-29T13:13:08.949Z,7.20
2018-05-29T13:15:36.365Z,6.30
2018-05-29T13:18:04.537Z,7.40
2018-05-29T13:20:31.982Z,6.70
2018-05-29T13:22:59.377Z,6.17
2018-05-29T13:25:26.792Z,6.50
2018-05-29T13:27:54.969Z,6.47
2018-05-29T13:30:23.148Z,6.50
2018-05-29T13:32:52.271Z,7.17
2018-05-29T13:35:20.537Z,6.80
2018-05-29T13:37:47.945Z,7.20
2018-05-29T13:40:15.360Z,6.67
2018-05-29T13:42:44.304Z,7.20
2018-05-29T13:45:11.726Z,7.10
2018-05-29T13:47:39.143Z,7.20
2018-05-29T13:50:06.627Z,7.30
2018-05-29T13:52:34.029Z,7.17
2018-05-29T13:55:01.461Z,6.77
2018-05-29T13:57:28.934Z,7.00
2018-05-29T13:59:56.408Z,7.33
2018-05-29T14:02:23.863Z,6.80
2018-05-29T14:04:52.957Z,6.90
2018-05-29T14:07:22.061Z,7.80
2018-05-29T14:09:50.237Z,8.30
2018-05-29T14:12:18.427Z,7.83
2018-05-29T14:14:46.733Z,7.10
2018-05-29T14:17:14.197Z,6.93
2018-05-29T14:19:41.613Z,7.57
2018-05-29T14:22:09.148Z,7.10
2018-05-29T14:24:37.333Z,7.90
2018-05-29T14:27:04.738Z,7.93
2018-05-29T14:29:32.149Z,7.97
2018-05-29T14:31:59.564Z,7.80
2018-05-29T14:34:27.009Z,8.20
2018-05-29T14:36:54.428Z,7.60
2018-05-29T14:39:22.677Z,7.80
2018-05-29T14:41:50.101Z,8.57
2018-05-29T14:44:18.325Z,8.13
2018-05-29T14:46:45.736Z,8.53
2018-05-29T14:49:13.147Z,8.60
2018-05-29T14:51:40.572Z,8.70
2018-05-29T14:54:08.098Z,9.40
2018-05-29T14:56:35.511Z,9.00
2018-05-29T14:59:03.689Z,8.57
2018-05-29T15:01:31.119Z,9.23
2018-05-29T15:03:58.519Z,8.50
2018-05-29T15:06:25.932Z,9.57
2018-05-29T15:08:53.363Z,10.27
2018-05-29T15:11:20.993Z,10.03
2018-05-29T15:13:48.460Z,8.87
2018-05-29T15:16:15.872Z,9.37
2018-05-29T15:18:43.287Z,9.53
2018-05-29T15:21:10.697Z,9.83
2018-05-29T15:23:38.227Z,9.70
2018-05-29T15:26:05.737Z,10.00
2018-05-29T15:28:33.862Z,9.17
2018-05-29T15:31:02.037Z,9.97
2018-05-29T15:33:30.216Z,9.00
2018-05-29T15:35:57.638Z,9.70
2018-05-29T15:38:25.054Z,9.83
2018-05-29T15:40:53.381Z,9.93
2018-05-29T15:43:20.854Z,9.90
2018-05-29T15:45:48.264Z,9.90
2018-05-29T15:48:15.677Z,9.30
2018-05-29T15:50:43.161Z,10.60
2018-05-29T15:53:10.577Z,10.63
2018-05-29T15:55:37.984Z,10.10
2018-05-29T15:58:05.413Z,10.33
2018-05-29T16:00:34.334Z,10.23
2018-05-29T16:03:02.522Z,10.70
2018-05-29T16:05:30.742Z,11.00
2018-05-29T16:07:58.153Z,11.40
2018-05-29T16:10:25.568Z,10.60
2018-05-29T16:12:53.906Z,10.57
2018-05-29T16:15:22.088Z,9.90
2018-05-29T16:17:49.620Z,10.03
2018-05-29T16:20:17.040Z,10.23
2018-05-29T16:22:44.449Z,10.40
2018-05-29T16:25:12.029Z,11.40
2018-05-29T16:27:39.444Z,11.93
2018-05-29T16:30:06.957Z,11.60
2018-05-29T16:32:34.377Z,12.37
2018-05-29T16:35:01.893Z,11.57
2018-05-29T16:37:29.361Z,12.50
2018-05-29T16:39:57.695Z,11.70
2018-05-29T16:42:25.134Z,12.40
2018-05-29T16:44:52.544Z,12.77
2018-05-29T16:47:19.965Z,12.70
2018-05-29T16:49:47.399Z,12.90
2018-05-29T16:52:15.595Z,12.20
2018-05-29T16:54:43.777Z,13.23
2018-05-29T16:57:11.956Z,12.57
2018-05-29T16:59:40.555Z,13.37
2018-05-29T17:02:07.956Z,14.07
2018-05-29T17:04:35.414Z,14.27
2018-05-29T17:07:02.888Z,14.20
2018-05-29T17:09:30.349Z,14.80
2018-05-29T17:11:57.786Z,14.43
2018-05-29T17:14:25.190Z,13.80
2018-05-29T17:16:52.604Z,14.67
2018-05-29T17:19:20.130Z,15.40
2018-05-29T17:21:47.569Z,13.53
2018-05-29T17:24:15.789Z,13.73
2018-05-29T17:26:43.202Z,14.10
2018-05-29T17:29:10.618Z,13.80
2018-05-29T17:31:38.081Z,14.67
2018-05-29T17:34:05.505Z,14.20
2018-05-29T17:36:32.921Z,13.83
2018-05-29T17:39:00.394Z,13.80
2018-05-29T17:41:28.579Z,15.57
2018-05-29T17:43:56.762Z,14.03
2018-05-29T17:46:25.108Z,14.43
2018-05-29T17:48:52.640Z,14.10
2018-05-29T17:51:20.081Z,24.80
2018-05-29T17:53:47.580Z,15.67
2018-05-29T17:56:15.058Z,13.40
2018-05-29T17:58:42.443Z,14.53
2018-05-29T18:01:09.852Z,15.10
2018-05-29T18:03:37.267Z,14.70
2018-05-29T18:06:04.708Z,14.40
2018-05-29T18:08:32.196Z,15.20
2018-05-29T18:10:59.597Z,13.93
2018-05-29T18:13:27.120Z,13.73
2018-05-29T18:15:56.910Z,15.00
2018-05-29T18:18:26.037Z,14.50
2018-05-29T18:20:53.523Z,14.93
2018-05-29T18:23:20.940Z,14.83
2018-05-29T18:25:48.559Z,15.10
2018-05-29T18:28:15.964Z,15.63
2018-05-29T18:30:43.382Z,15.27
2018-05-29T18:33:10.801Z,17.40
2018-05-29T18:35:38.216Z,14.83
2018-05-29T18:38:05.625Z,15.37
2018-05-29T18:40:33.052Z,17.27
2018-05-29T18:43:00.472Z,16.20
2018-05-29T18:45:27.907Z,15.00
2018-05-29T18:47:56.249Z,14.73
2018-05-29T18:50:23.663Z,14.50
2018-05-29T18:52:51.121Z,13.97
2018-05-29T18:55:18.782Z,14.23
2018-05-29T18:57:46.220Z,15.67
2018-05-29T19:00:13.733Z,14.60
2018-05-29T19:02:41.143Z,14.20
2018-05-29T19:05:08.559Z,15.43
2018-05-29T19:07:35.983Z,14.70
2018-05-29T19:10:06.061Z,14.77
2018-05-29T19:12:33.464Z,15.07
2018-05-29T19:15:00.897Z,14.47
2018-05-29T19:17:28.310Z,16.80
2018-05-29T19:19:57.219Z,16.00
2018-05-29T19:22:24.641Z,15.77
2018-05-29T19:24:52.064Z,17.10
2018-05-29T19:27:19.490Z,16.17
2018-05-29T19:29:46.907Z,16.37
2018-05-29T19:32:14.325Z,17.00
2018-05-29T19:34:41.745Z,14.63
2018-05-29T19:37:09.149Z,15.43
2018-05-29T19:39:36.612Z,15.73
2018-05-29T19:42:04.027Z,14.80
2018-05-29T19:44:32.220Z,16.80
2018-05-29T19:46:59.748Z,16.50
2018-05-29T19:49:28.025Z,20.87
2018-05-29T19:51:55.496Z,18.73
2018-05-29T19:54:22.984Z,19.47
2018-05-29T19:56:50.399Z,18.70
2018-05-29T19:59:18.623Z,18.20
2018-05-29T20:01:46.783Z,17.17
2018-05-29T20:04:14.992Z,16.27
2018-05-29T20:06:42.404Z,16.00
2018-05-29T20:09:09.826Z,15.50
2018-05-29T20:11:37.248Z,15.67
2018-05-29T20:14:04.758Z,13.90
2018-05-29T20:16:32.185Z,12.57
2018-05-29T20:18:59.604Z,12.00
2018-05-29T20:21:28.580Z,12.03
2018-05-29T20:23:57.692Z,11.53
2018-05-29T20:26:25.900Z,12.07
2018-05-29T20:28:53.381Z,10.80
2018-05-29T20:31:20.874Z,12.03
2018-05-29T20:33:48.992Z,11.13
2018-05-29T20:36:17.637Z,11.13
2018-05-29T20:38:45.035Z,12.17
2018-05-29T20:41:12.455Z,11.10
2018-05-29T20:43:39.939Z,11.30
2018-05-29T20:46:07.336Z,10.90
2018-05-29T20:48:34.753Z,11.47
2018-05-29T20:51:02.165Z,11.60
2018-05-29T20:53:29.580Z,12.20
2018-05-29T20:55:58.689Z,10.43
2018-05-29T20:58:26.871Z,11.17
2018-05-29T21:00:55.056Z,10.57
2018-05-29T21:03:23.242Z,10.70
2018-05-29T21:05:51.436Z,10.93
2018-05-29T21:08:19.624Z,11.07
2018-05-29T21:10:47.123Z,11.67
2018-05-29T21:13:14.670Z,11.50
2018-05-29T21:15:42.091Z,10.73
2018-05-29T21:18:11.012Z,10.97
2018-05-29T21:20:39.300Z,10.93
2018-05-29T21:23:06.696Z,11.60
2018-05-29T21:25:34.104Z,14.53
2018-05-29T21:28:01.529Z,13.77
2018-05-29T21:30:29.798Z,14.53
2018-05-29T21:32:58.908Z,16.03
2018-05-29T21:35:27.096Z,16.23
2018-05-29T21:37:55.323Z,15.90
2018-05-29T21:40:22.744Z,15.77
2018-05-29T21:42:50.184Z,16.10
2018-05-29T21:45:17.684Z,15.60
2018-05-29T21:47:45.885Z,16.00
2018-05-29T21:50:14.149Z,13.60
2018-05-29T21:52:41.572Z,13.77
2018-05-29T21:55:09.028Z,13.33
2018-05-29T21:57:36.444Z,12.40
2018-05-29T22:00:04.030Z,12.80
2018-05-29T22:02:31.384Z,15.00
2018-05-29T22:05:00.358Z,11.70
2018-05-29T22:07:27.768Z,11.53
2018-05-29T22:09:55.272Z,10.57
2018-05-29T22:12:22.695Z,11.43
2018-05-29T22:14:50.125Z,11.67
2018-05-29T22:17:17.535Z,10.47
2018-05-29T22:19:45.040Z,10.40
2018-05-29T22:22:12.513Z,11.33
2018-05-29T22:24:39.932Z,12.00
2018-05-29T22:27:07.348Z,11.10
2018-05-29T22:29:34.776Z,11.60
2018-05-29T22:32:02.197Z,10.60
2018-05-29T22:34:30.768Z,10.73
2018-05-29T22:36:59.870Z,11.73
2018-05-29T22:39:28.060Z,10.93
2018-05-29T22:41:56.257Z,10.60
2018-05-29T22:44:23.668Z,9.63
2018-05-29T22:46:51.093Z,9.90
2018-05-29T22:49:18.587Z,10.20
2018-05-29T22:51:46.042Z,9.10
2018-05-29T22:54:13.469Z,8.70
2018-05-29T22:56:40.967Z,7.80
2018-05-29T22:59:08.406Z,6.80
2018-05-29T23:01:35.795Z,6.10
2018-05-29T23:04:03.996Z,6.13
2018-05-29T23:06:31.407Z,5.83
2018-05-29T23:08:58.824Z,6.27
2018-05-29T23:11:26.240Z,6.00
2018-05-29T23:13:53.668Z,5.70
2018-05-29T23:16:21.102Z,6.17
2018-05-29T23:18:48.526Z,5.63
2018-05-29T23:21:15.937Z,6.47
2018-05-29T23:23:43.544Z,5.63
2018-05-29T23:26:11.019Z,6.87
2018-05-29T23:28:38.441Z,7.00
2018-05-29T23:31:05.852Z,7.30
2018-05-29T23:33:33.323Z,6.40
2018-05-29T23:36:01.885Z,6.72
2018-05-29T23:38:30.980Z,6.80
2018-05-29T23:40:58.408Z,6.90
2018-05-29T23:43:25.828Z,6.80
2018-05-29T23:45:54.005Z,8.10
2018-05-29T23:48:21.426Z,7.53
2018-05-29T23:50:48.888Z,7.70
2018-05-29T23:53:16.296Z,7.27
2018-05-29T23:55:43.813Z,7.60
2018-05-29T23:58:11.290Z,9.23
